createdAt,value
2019-03-29T00:00:42.522Z,10.44
2019-03-29T00:01:42.510Z,10.48
2019-03-29T00:02:43.048Z,10.40
2019-03-29T00:03:42.461Z,10.42
2019-03-29T00:04:42.435Z,10.36
2019-03-29T00:05:42.420Z,10.32
2019-03-29T00:06:42.397Z,10.32
2019-03-29T00:07:42.387Z,10.26
2019-03-29T00:08:42.351Z,10.30
2019-03-29T00:09:42.332Z,10.18
2019-03-29T00:10:42.313Z,10.11
2019-03-29T00:11:42.289Z,10.17
2019-03-29T00:12:42.276Z,10.01
2019-03-29T00:13:42.245Z,10.11
2019-03-29T00:14:42.348Z,10.09
2019-03-29T00:15:42.202Z,10.02
2019-03-29T00:16:42.183Z,9.97
2019-03-29T00:17:42.159Z,9.93
2019-03-29T00:18:42.138Z,9.94
2019-03-29T00:19:42.115Z,9.93
2019-03-29T00:20:42.096Z,9.93
2019-03-29T00:21:42.073Z,9.91
2019-03-29T00:22:42.067Z,9.87
2019-03-29T00:23:42.032Z,9.81
2019-03-29T00:24:42.009Z,9.87
2019-03-29T00:25:41.985Z,9.84
2019-03-29T00:26:41.966Z,9.81
2019-03-29T00:27:41.943Z,9.79
2019-03-29T00:28:41.921Z,9.79
2019-03-29T00:29:41.900Z,9.69
2019-03-29T00:30:41.888Z,9.71
2019-03-29T00:31:41.856Z,9.72
2019-03-29T00:32:41.835Z,9.64
2019-03-29T00:33:41.820Z,9.60
2019-03-29T00:34:42.055Z,9.65
2019-03-29T00:35:41.768Z,9.64
2019-03-29T00:36:41.754Z,9.57
2019-03-29T00:37:52.905Z,9.53
2019-03-29T00:38:41.714Z,9.58
2019-03-29T00:39:41.683Z,9.57
2019-03-29T00:40:41.661Z,9.51
2019-03-29T00:41:41.639Z,9.51
2019-03-29T00:42:42.400Z,9.50
2019-03-29T00:43:41.596Z,9.43
2019-03-29T00:44:41.579Z,9.47
2019-03-29T00:45:41.553Z,9.42
2019-03-29T00:46:41.533Z,9.40
2019-03-29T00:47:41.509Z,9.42
2019-03-29T00:48:41.490Z,9.40
2019-03-29T00:49:41.467Z,9.39
2019-03-29T00:50:41.455Z,9.35
2019-03-29T00:51:41.422Z,9.29
2019-03-29T00:52:41.406Z,9.24
2019-03-29T00:53:41.380Z,9.23
2019-03-29T00:54:41.357Z,9.18
2019-03-29T00:55:41.344Z,9.14
2019-03-29T00:56:41.315Z,9.17
2019-03-29T00:57:41.306Z,9.08
2019-03-29T00:58:41.270Z,8.94
2019-03-29T00:59:41.248Z,8.91
2019-03-29T01:00:41.229Z,8.95
2019-03-29T01:01:41.207Z,8.76
2019-03-29T01:02:41.187Z,8.86
2019-03-29T01:03:41.168Z,8.77
2019-03-29T01:04:41.142Z,8.81
2019-03-29T01:05:41.119Z,8.81
2019-03-29T01:06:41.097Z,8.77
2019-03-29T01:07:41.076Z,8.79
2019-03-29T01:08:41.052Z,8.80
2019-03-29T01:09:41.038Z,8.83
2019-03-29T01:10:41.011Z,8.74
2019-03-29T01:11:41.285Z,8.79
2019-03-29T01:12:40.964Z,8.77
2019-03-29T01:13:40.946Z,8.76
2019-03-29T01:14:40.927Z,8.81
2019-03-29T01:15:40.902Z,8.76
2019-03-29T01:16:40.876Z,8.79
2019-03-29T01:17:40.856Z,8.79
2019-03-29T01:18:40.832Z,8.77
2019-03-29T01:19:40.808Z,8.80
2019-03-29T01:20:40.787Z,8.73
2019-03-29T01:21:40.785Z,8.68
2019-03-29T01:22:40.745Z,8.70
2019-03-29T01:23:40.725Z,8.74
2019-03-29T01:24:41.445Z,8.66
2019-03-29T01:25:40.679Z,8.61
2019-03-29T01:26:40.655Z,8.44
2019-03-29T01:27:40.637Z,8.37
2019-03-29T01:28:40.619Z,8.20
2019-03-29T01:29:40.598Z,8.20
2019-03-29T01:30:40.571Z,8.08
2019-03-29T01:31:40.947Z,8.18
2019-03-29T01:32:40.523Z,8.22
2019-03-29T01:33:40.507Z,8.22
2019-03-29T01:34:40.479Z,8.22
2019-03-29T01:35:40.457Z,8.20
2019-03-29T01:36:40.436Z,8.22
2019-03-29T01:37:40.412Z,8.30
2019-03-29T01:38:40.407Z,8.33
2019-03-29T01:39:40.367Z,8.33
2019-03-29T01:40:40.346Z,8.30
2019-03-29T01:41:40.323Z,8.37
2019-03-29T01:42:40.303Z,8.37
2019-03-29T01:43:40.279Z,8.37
2019-03-29T01:44:40.257Z,8.33
2019-03-29T01:45:40.236Z,8.25
2019-03-29T01:46:40.223Z,8.23
2019-03-29T01:47:40.191Z,8.22
2019-03-29T01:48:40.169Z,8.10
2019-03-29T01:49:40.147Z,8.02
2019-03-29T01:50:40.126Z,7.87
2019-03-29T01:51:40.101Z,7.77
2019-03-29T01:52:40.079Z,7.68
2019-03-29T01:53:40.057Z,7.64
2019-03-29T01:54:40.036Z,7.60
2019-03-29T01:55:40.014Z,7.63
2019-03-29T01:56:40.251Z,7.67
2019-03-29T01:57:39.969Z,7.72
2019-03-29T01:58:39.947Z,7.67
2019-03-29T01:59:39.924Z,7.69
2019-03-29T02:00:39.902Z,7.85
2019-03-29T02:01:39.878Z,7.83
2019-03-29T02:02:39.858Z,7.67
2019-03-29T02:03:39.981Z,7.74
2019-03-29T02:04:39.812Z,7.67
2019-03-29T02:05:39.796Z,7.53
2019-03-29T02:06:39.769Z,7.50
2019-03-29T02:07:39.745Z,7.40
2019-03-29T02:08:39.725Z,7.45
2019-03-29T02:09:39.700Z,7.35
2019-03-29T02:10:39.688Z,7.28
2019-03-29T02:11:40.377Z,7.25
2019-03-29T02:12:39.634Z,7.21
2019-03-29T02:13:39.614Z,7.27
2019-03-29T02:14:39.587Z,7.24
2019-03-29T02:15:39.578Z,7.23
2019-03-29T02:16:39.542Z,7.21
2019-03-29T02:17:39.521Z,7.28
2019-03-29T02:18:39.980Z,7.23
2019-03-29T02:19:39.475Z,7.27
2019-03-29T02:20:39.454Z,7.34
2019-03-29T02:21:39.433Z,7.32
2019-03-29T02:22:39.409Z,7.30
2019-03-29T02:23:39.391Z,7.30
2019-03-29T02:24:39.363Z,7.25
2019-03-29T02:25:39.341Z,7.37
2019-03-29T02:26:39.326Z,7.37
2019-03-29T02:27:39.294Z,7.37
2019-03-29T02:28:39.273Z,7.34
2019-03-29T02:29:39.250Z,7.43
2019-03-29T02:30:39.234Z,7.48
2019-03-29T02:31:42.139Z,7.42
2019-03-29T02:32:39.184Z,7.45
2019-03-29T02:33:39.162Z,7.43
2019-03-29T02:34:39.143Z,7.46
2019-03-29T02:35:39.115Z,7.42
2019-03-29T02:36:39.092Z,7.39
2019-03-29T02:37:39.079Z,7.45
2019-03-29T02:38:54.244Z,7.43
2019-03-29T02:39:39.028Z,7.45
2019-03-29T02:40:39.012Z,7.50
2019-03-29T02:41:38.988Z,7.42
2019-03-29T02:42:38.960Z,7.48
2019-03-29T02:43:38.983Z,7.55
2019-03-29T02:44:38.917Z,7.63
2019-03-29T02:45:38.891Z,7.67
2019-03-29T02:46:38.871Z,7.69
2019-03-29T02:47:38.850Z,7.68
2019-03-29T02:48:38.824Z,7.69
2019-03-29T02:49:40.331Z,7.69
2019-03-29T02:50:38.778Z,7.64
2019-03-29T02:51:38.756Z,7.61
2019-03-29T02:52:38.743Z,7.50
2019-03-29T02:53:38.712Z,7.67
2019-03-29T02:54:38.689Z,7.60
2019-03-29T02:55:38.666Z,7.52
2019-03-29T02:56:38.644Z,7.55
2019-03-29T02:57:38.627Z,7.57
2019-03-29T02:58:38.597Z,7.43
2019-03-29T02:59:38.581Z,7.48
2019-03-29T03:00:38.556Z,7.46
2019-03-29T03:01:38.666Z,7.46
2019-03-29T03:02:38.511Z,7.43
2019-03-29T03:03:38.484Z,7.39
2019-03-29T03:04:38.463Z,7.43
2019-03-29T03:05:38.442Z,7.34
2019-03-29T03:06:38.430Z,7.23
2019-03-29T03:07:38.396Z,7.21
2019-03-29T03:08:38.371Z,7.07
2019-03-29T03:09:38.353Z,7.03
2019-03-29T03:10:38.332Z,7.20
2019-03-29T03:11:38.300Z,7.05
2019-03-29T03:12:38.278Z,7.03
2019-03-29T03:13:38.268Z,7.02
2019-03-29T03:14:38.266Z,6.89
2019-03-29T03:15:38.219Z,6.71
2019-03-29T03:16:38.188Z,6.67
2019-03-29T03:17:38.172Z,6.59
2019-03-29T03:18:38.143Z,6.59
2019-03-29T03:19:38.193Z,6.54
2019-03-29T03:20:38.241Z,6.67
2019-03-29T03:21:38.074Z,6.70
2019-03-29T03:22:38.050Z,6.74
2019-03-29T03:23:38.115Z,6.74
2019-03-29T03:24:38.007Z,6.73
2019-03-29T03:25:37.997Z,6.76
2019-03-29T03:26:37.961Z,6.84
2019-03-29T03:27:37.942Z,6.81
2019-03-29T03:28:37.920Z,6.88
2019-03-29T03:29:37.896Z,6.87
2019-03-29T03:30:37.917Z,6.89
2019-03-29T03:31:37.855Z,6.94
2019-03-29T03:32:37.838Z,6.92
2019-03-29T03:33:37.802Z,7.02
2019-03-29T03:34:37.802Z,6.92
2019-03-29T03:35:37.758Z,6.97
2019-03-29T03:36:37.743Z,7.02
2019-03-29T03:37:37.720Z,7.06
2019-03-29T03:38:37.690Z,7.03
2019-03-29T03:39:37.670Z,7.02
2019-03-29T03:40:37.649Z,7.09
2019-03-29T03:41:37.621Z,7.10
2019-03-29T03:42:37.598Z,7.06
2019-03-29T03:43:37.583Z,7.02
2019-03-29T03:44:37.551Z,7.07
2019-03-29T03:45:37.533Z,6.94
2019-03-29T03:46:37.507Z,6.91
2019-03-29T03:47:37.485Z,6.98
2019-03-29T03:48:37.458Z,6.94
2019-03-29T03:49:37.443Z,6.77
2019-03-29T03:50:37.413Z,6.80
2019-03-29T03:51:37.396Z,6.69
2019-03-29T03:52:37.369Z,6.64
2019-03-29T03:53:37.344Z,6.64
2019-03-29T03:54:37.331Z,6.62
2019-03-29T03:55:37.311Z,6.64
2019-03-29T03:56:37.282Z,6.55
2019-03-29T03:57:37.264Z,6.61
2019-03-29T03:58:37.250Z,6.58
2019-03-29T03:59:37.206Z,6.64
2019-03-29T04:00:37.182Z,6.62
2019-03-29T04:01:37.174Z,6.59
2019-03-29T04:02:37.147Z,6.52
2019-03-29T04:03:37.118Z,6.40
2019-03-29T04:04:37.836Z,6.14
2019-03-29T04:05:37.068Z,6.03
2019-03-29T04:06:37.048Z,5.93
2019-03-29T04:07:37.025Z,5.79
2019-03-29T04:08:36.998Z,5.76
2019-03-29T04:09:49.322Z,5.58
2019-03-29T04:10:36.958Z,5.67
2019-03-29T04:11:36.929Z,5.71
2019-03-29T04:12:36.915Z,5.72
2019-03-29T04:13:36.886Z,5.85
2019-03-29T04:14:36.868Z,5.97
2019-03-29T04:15:36.840Z,5.91
2019-03-29T04:16:36.815Z,6.03
2019-03-29T04:17:36.794Z,6.08
2019-03-29T04:18:36.772Z,6.01
2019-03-29T04:19:36.747Z,6.01
2019-03-29T04:20:37.231Z,6.08
2019-03-29T04:21:36.710Z,6.04
2019-03-29T04:22:36.682Z,6.08
2019-03-29T04:23:36.654Z,6.04
2019-03-29T04:24:36.634Z,6.11
2019-03-29T04:25:36.620Z,6.12
2019-03-29T04:26:36.585Z,6.15
2019-03-29T04:27:36.562Z,6.15
2019-03-29T04:28:36.542Z,6.11
2019-03-29T04:29:36.516Z,6.15
2019-03-29T04:30:36.493Z,6.22
2019-03-29T04:31:36.470Z,6.21
2019-03-29T04:32:36.454Z,6.31
2019-03-29T04:33:36.425Z,6.34
2019-03-29T04:34:36.401Z,6.30
2019-03-29T04:35:36.377Z,6.15
2019-03-29T04:36:36.355Z,6.25
2019-03-29T04:37:36.341Z,6.12
2019-03-29T04:38:36.313Z,6.17
2019-03-29T04:39:36.290Z,6.22
2019-03-29T04:40:36.265Z,6.21
2019-03-29T04:41:36.242Z,6.06
2019-03-29T04:42:36.221Z,5.99
2019-03-29T04:43:36.196Z,5.99
2019-03-29T04:44:36.168Z,5.91
2019-03-29T04:45:36.151Z,5.96
2019-03-29T04:46:36.137Z,6.01
2019-03-29T04:47:36.102Z,5.99
2019-03-29T04:48:36.078Z,6.03
2019-03-29T04:49:36.052Z,6.09
2019-03-29T04:50:36.036Z,6.00
2019-03-29T04:51:36.005Z,6.08
2019-03-29T04:52:35.986Z,6.17
2019-03-29T04:53:35.961Z,6.18
2019-03-29T04:54:35.937Z,6.11
2019-03-29T04:55:35.915Z,6.19
2019-03-29T04:56:35.894Z,6.15
2019-03-29T04:57:35.867Z,6.15
2019-03-29T04:58:35.846Z,6.11
2019-03-29T04:59:35.821Z,6.04
2019-03-29T05:00:35.797Z,6.08
2019-03-29T05:01:35.779Z,6.03
2019-03-29T05:02:35.771Z,6.03
2019-03-29T05:03:35.728Z,5.91
2019-03-29T05:04:35.706Z,5.91
2019-03-29T05:05:35.681Z,5.96
2019-03-29T05:06:35.656Z,5.93
2019-03-29T05:07:37.236Z,6.01
2019-03-29T05:08:35.611Z,6.01
2019-03-29T05:09:35.591Z,6.06
2019-03-29T05:10:35.567Z,5.99
2019-03-29T05:11:35.545Z,6.03
2019-03-29T05:12:35.518Z,6.01
2019-03-29T05:13:35.497Z,6.03
2019-03-29T05:14:35.470Z,6.01
2019-03-29T05:15:35.447Z,6.04
2019-03-29T05:16:35.424Z,6.06
2019-03-29T05:17:35.399Z,6.15
2019-03-29T05:18:35.381Z,6.11
2019-03-29T05:19:35.355Z,6.18
2019-03-29T05:20:35.331Z,6.18
2019-03-29T05:21:35.312Z,6.18
2019-03-29T05:22:35.294Z,6.17
2019-03-29T05:23:35.259Z,6.17
2019-03-29T05:24:35.243Z,6.30
2019-03-29T05:25:35.217Z,6.28
2019-03-29T05:26:35.192Z,6.34
2019-03-29T05:27:35.166Z,6.22
2019-03-29T05:28:35.148Z,6.17
2019-03-29T05:29:35.126Z,6.17
2019-03-29T05:30:35.112Z,6.04
2019-03-29T05:31:35.083Z,6.06
2019-03-29T05:32:35.051Z,5.90
2019-03-29T05:33:35.026Z,5.85
2019-03-29T05:34:35.004Z,5.79
2019-03-29T05:35:34.981Z,5.79
2019-03-29T05:36:34.957Z,5.83
2019-03-29T05:37:34.934Z,5.74
2019-03-29T05:38:34.911Z,5.78
2019-03-29T05:39:34.888Z,5.72
2019-03-29T05:40:35.476Z,5.61
2019-03-29T05:41:34.840Z,5.53
2019-03-29T05:42:34.819Z,5.56
2019-03-29T05:43:34.794Z,5.51
2019-03-29T05:44:34.771Z,5.48
2019-03-29T05:45:34.748Z,5.51
2019-03-29T05:46:34.726Z,5.64
2019-03-29T05:47:34.700Z,5.63
2019-03-29T05:48:34.678Z,5.65
2019-03-29T05:49:34.653Z,5.68
2019-03-29T05:50:36.854Z,5.79
2019-03-29T05:51:34.607Z,5.76
2019-03-29T05:52:34.584Z,5.82
2019-03-29T05:53:34.559Z,5.82
2019-03-29T05:54:34.536Z,5.94
2019-03-29T05:55:34.516Z,5.91
2019-03-29T05:56:34.493Z,5.93
2019-03-29T05:57:34.466Z,6.00
2019-03-29T05:58:34.449Z,5.99
2019-03-29T05:59:34.420Z,6.03
2019-03-29T06:00:34.397Z,6.03
2019-03-29T06:01:34.381Z,6.00
2019-03-29T06:02:34.348Z,6.00
2019-03-29T06:03:34.326Z,5.82
2019-03-29T06:04:34.302Z,5.78
2019-03-29T06:05:34.278Z,5.61
2019-03-29T06:06:34.262Z,5.68
2019-03-29T06:07:34.235Z,5.63
2019-03-29T06:08:34.209Z,5.60
2019-03-29T06:09:35.090Z,5.71
2019-03-29T06:10:47.821Z,5.85
2019-03-29T06:11:34.146Z,5.89
2019-03-29T06:12:34.116Z,5.90
2019-03-29T06:13:34.092Z,5.90
2019-03-29T06:14:34.070Z,5.96
2019-03-29T06:15:34.047Z,5.90
2019-03-29T06:16:39.330Z,5.96
2019-03-29T06:17:47.624Z,6.06
2019-03-29T06:18:33.986Z,6.08
2019-03-29T06:19:33.954Z,6.15
2019-03-29T06:20:33.934Z,6.19
2019-03-29T06:21:33.907Z,6.21
2019-03-29T06:22:33.883Z,6.30
2019-03-29T06:23:33.860Z,6.33
2019-03-29T06:24:33.836Z,6.31
2019-03-29T06:25:33.813Z,6.38
2019-03-29T06:26:33.795Z,6.44
2019-03-29T06:27:33.785Z,6.48
2019-03-29T06:28:33.743Z,6.56
2019-03-29T06:29:33.721Z,6.59
2019-03-29T06:30:33.699Z,6.67
2019-03-29T06:31:33.678Z,6.73
2019-03-29T06:32:33.650Z,6.73
2019-03-29T06:33:33.625Z,6.80
2019-03-29T06:34:33.602Z,6.94
2019-03-29T06:35:33.580Z,6.97
2019-03-29T06:36:33.559Z,6.88
2019-03-29T06:37:33.536Z,7.09
2019-03-29T06:38:33.512Z,7.13
2019-03-29T06:39:33.484Z,7.16
2019-03-29T06:40:33.464Z,7.15
2019-03-29T06:41:33.440Z,7.27
2019-03-29T06:42:33.418Z,7.32
2019-03-29T06:43:33.406Z,7.37
2019-03-29T06:44:33.372Z,7.42
2019-03-29T06:45:46.833Z,7.50
2019-03-29T06:46:33.325Z,7.49
2019-03-29T06:47:33.301Z,7.55
2019-03-29T06:48:33.276Z,7.64
2019-03-29T06:49:33.256Z,7.67
2019-03-29T06:50:33.279Z,7.68
2019-03-29T06:51:33.212Z,7.67
2019-03-29T06:52:33.187Z,7.82
2019-03-29T06:53:33.165Z,7.75
2019-03-29T06:54:33.141Z,7.85
2019-03-29T06:55:33.117Z,7.92
2019-03-29T06:56:33.093Z,8.00
2019-03-29T06:57:33.075Z,7.97
2019-03-29T06:58:33.049Z,7.98
2019-03-29T06:59:33.026Z,8.02
2019-03-29T07:00:33.001Z,8.12
2019-03-29T07:01:32.980Z,8.22
2019-03-29T07:02:32.958Z,8.19
2019-03-29T07:03:32.941Z,8.23
2019-03-29T07:04:32.913Z,8.34
2019-03-29T07:05:32.889Z,8.38
2019-03-29T07:06:32.867Z,8.40
2019-03-29T07:07:32.843Z,8.43
2019-03-29T07:08:32.822Z,8.53
2019-03-29T07:09:32.801Z,8.61
2019-03-29T07:10:32.785Z,8.58
2019-03-29T07:11:32.752Z,8.77
2019-03-29T07:12:32.729Z,8.74
2019-03-29T07:13:32.720Z,8.79
2019-03-29T07:14:32.690Z,8.83
2019-03-29T07:15:32.662Z,8.89
2019-03-29T07:16:32.642Z,8.96
2019-03-29T07:17:32.618Z,9.01
2019-03-29T07:18:32.596Z,9.04
2019-03-29T07:19:32.574Z,9.11
2019-03-29T07:20:32.551Z,9.13
2019-03-29T07:21:32.528Z,9.15
2019-03-29T07:22:34.668Z,9.26
2019-03-29T07:23:32.487Z,9.31
2019-03-29T07:24:32.460Z,9.33
2019-03-29T07:25:32.441Z,9.28
2019-03-29T07:26:32.415Z,9.28
2019-03-29T07:27:43.914Z,9.39
2019-03-29T07:28:32.371Z,9.42
2019-03-29T07:29:32.387Z,9.43
2019-03-29T07:30:32.333Z,9.64
2019-03-29T07:31:32.307Z,9.64
2019-03-29T07:32:32.282Z,9.61
2019-03-29T07:33:32.271Z,9.68
2019-03-29T07:34:32.237Z,9.72
2019-03-29T07:35:32.216Z,9.71
2019-03-29T07:36:32.195Z,9.75
2019-03-29T07:37:32.171Z,9.74
2019-03-29T07:38:32.151Z,9.79
2019-03-29T07:39:32.128Z,9.89
2019-03-29T07:40:32.113Z,9.93
2019-03-29T07:41:32.635Z,9.93
2019-03-29T07:42:32.063Z,10.02
2019-03-29T07:43:32.048Z,10.07
2019-03-29T07:44:32.018Z,10.18
2019-03-29T07:45:31.996Z,10.07
2019-03-29T07:46:31.975Z,10.09
2019-03-29T07:47:31.950Z,10.18
2019-03-29T07:48:31.931Z,10.18
2019-03-29T07:49:31.909Z,10.27
2019-03-29T07:50:31.886Z,10.30
2019-03-29T07:51:31.871Z,10.26
2019-03-29T07:52:31.842Z,10.14
2019-03-29T07:53:31.821Z,10.17
2019-03-29T07:54:31.803Z,10.25
2019-03-29T07:55:31.776Z,10.27
2019-03-29T07:56:31.755Z,10.29
2019-03-29T07:57:31.737Z,10.38
2019-03-29T07:58:31.713Z,10.41
2019-03-29T07:59:31.690Z,10.45
2019-03-29T08:00:31.673Z,10.53
2019-03-29T08:01:32.579Z,10.44
2019-03-29T08:02:34.865Z,10.51
2019-03-29T08:03:31.604Z,10.53
2019-03-29T08:04:31.582Z,10.60
2019-03-29T08:05:31.569Z,10.60
2019-03-29T08:06:31.541Z,10.64
2019-03-29T08:07:31.639Z,10.79
2019-03-29T08:08:33.333Z,10.79
2019-03-29T08:09:31.481Z,10.78
2019-03-29T08:10:32.079Z,10.84
2019-03-29T08:11:40.124Z,11.02
2019-03-29T08:12:31.581Z,11.10
2019-03-29T08:13:31.393Z,11.14
2019-03-29T08:14:31.379Z,11.18
2019-03-29T08:15:31.347Z,11.22
2019-03-29T08:16:31.327Z,11.36
2019-03-29T08:17:31.304Z,11.33
2019-03-29T08:18:31.285Z,11.36
2019-03-29T08:19:31.264Z,11.47
2019-03-29T08:20:43.485Z,11.46
2019-03-29T08:21:31.218Z,11.49
2019-03-29T08:22:31.198Z,11.42
2019-03-29T08:23:31.176Z,11.52
2019-03-29T08:24:31.165Z,11.58
2019-03-29T08:25:31.138Z,11.55
2019-03-29T08:26:31.205Z,11.58
2019-03-29T08:27:31.103Z,11.65
2019-03-29T08:28:31.070Z,11.55
2019-03-29T08:29:31.514Z,11.78
2019-03-29T08:30:31.031Z,11.82
2019-03-29T08:31:31.008Z,11.96
2019-03-29T08:32:30.992Z,11.94
2019-03-29T08:33:30.966Z,11.85
2019-03-29T08:34:30.947Z,11.95
2019-03-29T08:35:30.924Z,12.01
2019-03-29T08:36:30.903Z,11.99
2019-03-29T08:37:30.882Z,12.04
2019-03-29T08:38:30.864Z,12.02
2019-03-29T08:39:30.838Z,11.95
2019-03-29T08:40:30.818Z,11.98
2019-03-29T08:41:30.797Z,12.05
2019-03-29T08:42:30.778Z,12.17
2019-03-29T08:43:30.755Z,12.23
2019-03-29T08:44:30.738Z,12.19
2019-03-29T08:45:30.713Z,12.37
2019-03-29T08:46:30.694Z,12.32
2019-03-29T08:47:30.675Z,12.46
2019-03-29T08:48:30.652Z,12.53
2019-03-29T08:49:30.630Z,12.49
2019-03-29T08:50:30.611Z,12.49
2019-03-29T08:51:30.592Z,12.53
2019-03-29T08:52:30.568Z,12.52
2019-03-29T08:53:30.551Z,12.56
2019-03-29T08:54:30.528Z,12.39
2019-03-29T08:55:44.687Z,12.38
2019-03-29T08:56:30.488Z,12.41
2019-03-29T08:57:30.466Z,12.35
2019-03-29T08:58:30.490Z,12.50
2019-03-29T08:59:30.427Z,12.53
2019-03-29T09:00:30.403Z,12.53
2019-03-29T09:01:30.383Z,12.68
2019-03-29T09:02:30.361Z,12.59
2019-03-29T09:03:30.345Z,12.54
2019-03-29T09:04:30.319Z,12.57
2019-03-29T09:05:30.302Z,12.82
2019-03-29T09:06:30.658Z,12.68
2019-03-29T09:07:43.572Z,12.70
2019-03-29T09:08:30.257Z,12.71
2019-03-29T09:09:30.220Z,12.70
2019-03-29T09:10:30.201Z,12.79
2019-03-29T09:11:30.179Z,12.83
2019-03-29T09:12:30.154Z,12.85
2019-03-29T09:13:30.139Z,12.79
2019-03-29T09:14:31.512Z,12.79
2019-03-29T09:15:30.092Z,12.85
2019-03-29T09:16:30.074Z,12.87
2019-03-29T09:17:30.055Z,12.85
2019-03-29T09:18:30.032Z,12.86
2019-03-29T09:19:30.016Z,12.90
2019-03-29T09:20:29.991Z,12.97
2019-03-29T09:21:29.982Z,13.15
2019-03-29T09:22:29.950Z,13.10
2019-03-29T09:23:30.421Z,13.20
2019-03-29T09:24:29.909Z,13.15
2019-03-29T09:25:29.894Z,13.17
2019-03-29T09:26:29.870Z,13.23
2019-03-29T09:27:31.958Z,13.25
2019-03-29T09:28:32.787Z,13.22
2019-03-29T09:29:29.818Z,13.36
2019-03-29T09:30:29.794Z,13.30
2019-03-29T09:31:29.764Z,13.42
2019-03-29T09:32:29.743Z,13.44
2019-03-29T09:33:29.732Z,13.44
2019-03-29T09:34:29.709Z,13.39
2019-03-29T09:35:29.695Z,13.55
2019-03-29T09:36:29.664Z,13.57
2019-03-29T09:37:29.652Z,13.54
2019-03-29T09:38:29.624Z,13.54
2019-03-29T09:39:29.611Z,13.57
2019-03-29T09:40:29.613Z,13.70
2019-03-29T09:41:29.565Z,13.73
2019-03-29T09:42:30.330Z,13.70
2019-03-29T09:43:29.520Z,13.85
2019-03-29T09:44:29.500Z,13.69
2019-03-29T09:45:29.491Z,13.81
2019-03-29T09:46:29.460Z,13.67
2019-03-29T09:47:36.009Z,13.67
2019-03-29T09:48:29.424Z,13.71
2019-03-29T09:49:29.401Z,13.84
2019-03-29T09:50:29.384Z,13.92
2019-03-29T09:51:29.359Z,14.02
2019-03-29T09:52:29.350Z,14.10
2019-03-29T09:53:29.323Z,14.10
2019-03-29T09:54:29.300Z,14.10
2019-03-29T09:55:29.282Z,14.18
2019-03-29T09:56:38.489Z,14.20
2019-03-29T09:57:37.383Z,14.14
2019-03-29T09:58:29.223Z,14.18
2019-03-29T09:59:29.199Z,14.28
2019-03-29T10:00:29.181Z,14.25
2019-03-29T10:01:29.312Z,14.36
2019-03-29T10:02:29.148Z,14.42
2019-03-29T10:03:29.123Z,14.43
2019-03-29T10:04:29.102Z,14.45
2019-03-29T10:05:31.259Z,14.40
2019-03-29T10:06:29.063Z,14.50
2019-03-29T10:07:29.042Z,14.55
2019-03-29T10:08:29.023Z,14.51
2019-03-29T10:09:29.005Z,14.51
2019-03-29T10:10:28.984Z,14.68
2019-03-29T10:11:28.963Z,14.70
2019-03-29T10:12:42.310Z,14.65
2019-03-29T10:13:28.932Z,14.61
2019-03-29T10:14:28.903Z,14.75
2019-03-29T10:15:28.883Z,14.89
2019-03-29T10:16:28.865Z,14.88
2019-03-29T10:17:28.846Z,14.94
2019-03-29T10:18:28.831Z,14.89
2019-03-29T10:19:28.803Z,14.88
2019-03-29T10:20:28.784Z,14.77
2019-03-29T10:21:28.774Z,14.84
2019-03-29T10:22:28.751Z,14.98
2019-03-29T10:23:28.727Z,14.84
2019-03-29T10:24:28.707Z,14.84
2019-03-29T10:25:28.690Z,14.89
2019-03-29T10:26:28.668Z,14.91
2019-03-29T10:27:28.649Z,14.92
2019-03-29T10:28:28.630Z,14.91
2019-03-29T10:29:28.619Z,14.94
2019-03-29T10:30:28.595Z,14.92
2019-03-29T10:31:32.359Z,14.94
2019-03-29T10:32:28.554Z,15.02
2019-03-29T10:33:28.533Z,15.17
2019-03-29T10:34:28.521Z,15.13
2019-03-29T10:35:28.495Z,15.19
2019-03-29T10:36:28.475Z,15.27
2019-03-29T10:37:28.456Z,15.28
2019-03-29T10:38:28.445Z,15.27
2019-03-29T10:39:28.418Z,15.28
2019-03-29T10:40:28.401Z,15.32
2019-03-29T10:41:28.379Z,15.43
2019-03-29T10:42:28.360Z,15.21
2019-03-29T10:43:28.339Z,15.31
2019-03-29T10:44:28.318Z,15.38
2019-03-29T10:45:28.299Z,15.41
2019-03-29T10:46:28.280Z,15.43
2019-03-29T10:47:42.438Z,15.59
2019-03-29T10:48:28.244Z,15.44
2019-03-29T10:49:28.230Z,15.56
2019-03-29T10:50:28.204Z,15.51
2019-03-29T10:51:28.189Z,15.49
2019-03-29T10:52:28.165Z,15.36
2019-03-29T10:53:28.939Z,15.49
2019-03-29T10:54:28.141Z,15.53
2019-03-29T10:55:28.110Z,15.47
2019-03-29T10:56:34.417Z,15.50
2019-03-29T10:57:28.074Z,15.64
2019-03-29T10:58:28.053Z,15.54
2019-03-29T10:59:28.198Z,15.72
2019-03-29T11:00:28.012Z,15.75
2019-03-29T11:01:27.995Z,15.75
2019-03-29T11:02:27.975Z,15.71
2019-03-29T11:03:28.801Z,15.64
2019-03-29T11:04:31.560Z,15.67
2019-03-29T11:05:27.944Z,15.57
2019-03-29T11:06:27.900Z,15.67
2019-03-29T11:07:27.879Z,15.59
2019-03-29T11:08:27.860Z,15.57
2019-03-29T11:09:27.850Z,15.65
2019-03-29T11:10:27.826Z,15.64
2019-03-29T11:11:27.812Z,15.57
2019-03-29T11:12:27.785Z,15.65
2019-03-29T11:13:27.766Z,15.71
2019-03-29T11:14:27.759Z,15.75
2019-03-29T11:15:27.727Z,15.92
2019-03-29T11:16:27.712Z,15.97
2019-03-29T11:17:27.692Z,16.01
2019-03-29T11:18:27.671Z,16.01
2019-03-29T11:19:27.654Z,16.11
2019-03-29T11:20:27.646Z,16.04
2019-03-29T11:21:27.619Z,15.90
2019-03-29T11:22:27.602Z,15.84
2019-03-29T11:23:27.581Z,15.64
2019-03-29T11:24:27.559Z,15.64
2019-03-29T11:25:27.544Z,15.71
2019-03-29T11:26:27.523Z,15.78
2019-03-29T11:27:27.515Z,15.76
2019-03-29T11:28:27.484Z,15.93
2019-03-29T11:29:27.467Z,15.96
2019-03-29T11:30:41.189Z,15.89
2019-03-29T11:31:27.428Z,15.93
2019-03-29T11:32:27.411Z,16.00
2019-03-29T11:33:27.392Z,16.04
2019-03-29T11:34:27.371Z,16.00
2019-03-29T11:35:27.364Z,15.96
2019-03-29T11:36:27.337Z,15.94
2019-03-29T11:37:27.317Z,15.87
2019-03-29T11:38:27.298Z,15.83
2019-03-29T11:39:27.634Z,15.87
2019-03-29T11:40:27.259Z,15.97
2019-03-29T11:41:27.242Z,16.01
2019-03-29T11:42:27.225Z,16.02
2019-03-29T11:43:27.532Z,16.05
2019-03-29T11:44:30.083Z,16.14
2019-03-29T11:45:27.167Z,16.07
2019-03-29T11:46:27.149Z,15.86
2019-03-29T11:47:27.137Z,15.72
2019-03-29T11:48:29.613Z,15.65
2019-03-29T11:49:27.091Z,15.71
2019-03-29T11:50:29.035Z,15.82
2019-03-29T11:51:27.054Z,15.90
2019-03-29T11:52:27.037Z,15.93
2019-03-29T11:53:27.019Z,15.93
2019-03-29T11:54:27.005Z,16.02
2019-03-29T11:55:26.983Z,16.11
2019-03-29T11:56:26.964Z,16.24
2019-03-29T11:57:26.951Z,16.31
2019-03-29T11:58:26.931Z,16.38
2019-03-29T11:59:26.909Z,16.45
2019-03-29T12:00:26.905Z,16.38
2019-03-29T12:01:26.877Z,16.04
2019-03-29T12:02:31.450Z,16.09
2019-03-29T12:03:26.839Z,15.90
2019-03-29T12:04:26.816Z,15.71
2019-03-29T12:05:26.800Z,15.65
2019-03-29T12:06:26.779Z,15.68
2019-03-29T12:07:26.764Z,15.74
2019-03-29T12:08:26.754Z,15.86
2019-03-29T12:09:26.723Z,15.87
2019-03-29T12:10:26.705Z,16.01
2019-03-29T12:11:26.684Z,16.12
2019-03-29T12:12:27.727Z,16.24
2019-03-29T12:13:35.037Z,16.30
2019-03-29T12:14:26.633Z,16.27
2019-03-29T12:15:26.620Z,16.31
2019-03-29T12:16:26.594Z,16.58
2019-03-29T12:17:26.576Z,16.61
2019-03-29T12:18:26.568Z,16.38
2019-03-29T12:19:26.547Z,16.25
2019-03-29T12:20:26.520Z,16.20
2019-03-29T12:21:26.506Z,16.09
2019-03-29T12:22:26.491Z,15.94
2019-03-29T12:23:26.464Z,15.97
2019-03-29T12:24:26.447Z,16.02
2019-03-29T12:25:26.427Z,16.02
2019-03-29T12:26:26.407Z,16.20
2019-03-29T12:27:26.391Z,16.33
2019-03-29T12:28:26.371Z,16.50
2019-03-29T12:29:26.352Z,16.49
2019-03-29T12:30:31.677Z,16.53
2019-03-29T12:31:26.324Z,16.52
2019-03-29T12:32:26.297Z,16.53
2019-03-29T12:33:26.308Z,16.46
2019-03-29T12:34:26.263Z,16.21
2019-03-29T12:35:26.244Z,16.15
2019-03-29T12:36:26.226Z,16.11
2019-03-29T12:37:26.209Z,16.24
2019-03-29T12:38:26.202Z,16.17
2019-03-29T12:39:26.170Z,16.08
2019-03-29T12:40:26.150Z,16.05
2019-03-29T12:41:26.136Z,16.21
2019-03-29T12:42:26.123Z,16.34
2019-03-29T12:43:26.103Z,16.48
2019-03-29T12:44:26.086Z,16.56
2019-03-29T12:45:26.065Z,16.57
2019-03-29T12:46:26.057Z,16.57
2019-03-29T12:47:26.030Z,16.70
2019-03-29T12:48:26.009Z,16.56
2019-03-29T12:49:25.985Z,16.70
2019-03-29T12:50:25.970Z,16.79
2019-03-29T12:51:25.947Z,16.73
2019-03-29T12:52:25.929Z,16.70
2019-03-29T12:53:25.914Z,16.63
2019-03-29T12:54:25.894Z,16.70
2019-03-29T12:55:25.878Z,16.60
2019-03-29T12:56:25.858Z,16.53
2019-03-29T12:57:25.845Z,16.42
2019-03-29T12:58:25.818Z,16.48
2019-03-29T12:59:25.819Z,16.56
2019-03-29T13:00:25.785Z,16.60
2019-03-29T13:01:38.630Z,16.75
2019-03-29T13:02:25.751Z,16.85
2019-03-29T13:03:25.823Z,16.81
2019-03-29T13:04:25.710Z,16.96
2019-03-29T13:05:25.695Z,17.07
2019-03-29T13:06:25.676Z,17.07
2019-03-29T13:07:25.658Z,17.22